Time,TemperatureF,DewpointF,PressureIn,WindDirection,WindDirectionDegrees,WindSpeedMPH,WindSpeedGustMPH,Humidity,HourlyPrecipIn,Conditions,Clouds,dailyrainin,SoftwareType,DateUTC
2013-03-20 00:00:00,69.3,68.1,29.82,NNE,28,7.2,10.2,96,0.00,,---,0.00,VWS V14.01,2013-03-20 05:00:00,
2013-03-20 00:05:00,69.1,67.9,29.82,NE,54,5.2,13.2,96,0.00,,---,0.00,VWS V14.01,2013-03-20 05:05:00,
2013-03-20 00:10:00,69.3,68.4,29.82,East,90,10.2,10.2,97,0.00,,---,0.00,VWS V14.01,2013-03-20 05:10:00,
2013-03-20 00:15:00,69.3,68.1,29.82,East,82,9.2,11.2,96,0.00,,---,0.00,VWS V14.01,2013-03-20 05:15:00,
2013-03-20 00:20:00,69.4,68.2,29.82,East,89,8.2,12.2,96,0.00,,---,0.00,VWS V14.01,2013-03-20 05:20:00,
2013-03-20 00:25:00,69.3,68.1,29.82,NE,43,8.2,11.2,96,0.00,,---,0.00,VWS V14.01,2013-03-20 05:25:00,
2013-03-20 00:30:00,69.3,68.1,29.82,ENE,66,10.2,10.2,96,0.00,,---,0.00,VWS V14.01,2013-03-20 05:30:00,
2013-03-20 00:35:00,69.1,67.9,29.82,East,83,6.2,12.2,96,0.00,,---,0.00,VWS V14.01,2013-03-20 05:35:00,
2013-03-20 00:40:00,69.1,67.9,29.82,ENE,78,7.2,10.2,96,0.00,,---,0.00,VWS V14.01,2013-03-20 05:40:00,
2013-03-20 00:45:00,69.1,68.2,29.82,ENE,74,6.2,11.2,97,0.00,,---,0.00,VWS V14.01,2013-03-20 05:45:00,
2013-03-20 00:50:00,69.1,67.9,29.82,ENE,59,9.2,11.2,96,0.00,,---,0.00,VWS V14.01,2013-03-20 05:50:00,
2013-03-20 00:55:00,68.9,67.7,29.82,ENE,66,8.2,12.2,96,0.00,,---,0.00,VWS V14.01,2013-03-20 05:55:00,
2013-03-20 01:00:00,68.9,68.0,29.82,ENE,78,11.2,11.2,97,0.00,,---,0.00,VWS V14.01,2013-03-20 06:00:00,
2013-03-20 01:05:00,68.9,68.0,29.82,ENE,65,12.2,12.2,97,0.00,,---,0.00,VWS V14.01,2013-03-20 06:05:00,
2013-03-20 01:10:00,68.9,68.0,29.82,ENE,77,8.2,15.2,97,0.00,,---,0.00,VWS V14.01,2013-03-20 06:10:00,
2013-03-20 01:15:00,68.9,68.0,29.82,East,89,6.2,12.2,97,0.00,,---,0.00,VWS V14.01,2013-03-20 06:15:00,
2013-03-20 01:20:00,68.8,67.9,29.81,ENE,61,10.2,13.2,97,0.00,,---,0.00,VWS V14.01,2013-03-20 06:20:00,
2013-03-20 01:25:00,68.8,67.9,29.81,ENE,63,6.2,14.2,97,0.00,,---,0.00,VWS V14.01,2013-03-20 06:25:00,
2013-03-20 01:30:00,68.8,67.9,29.81,NE,49,4.2,11.2,97,0.00,,---,0.00,VWS V14.01,2013-03-20 06:30:00,
2013-03-20 01:35:00,68.8,67.9,29.82,NE,54,6.2,13.2,97,0.00,,---,0.00,VWS V14.01,2013-03-20 06:35:00,
2013-03-20 01:40:00,68.6,67.7,29.82,ENE,68,7.2,12.2,97,0.00,,---,0.00,VWS V14.01,2013-03-20 06:40:00,
2013-03-20 01:45:00,68.8,67.9,29.82,East,80,5.2,11.2,97,0.00,,---,0.00,VWS V14.01,2013-03-20 06:45:00,
2013-03-20 01:50:00,68.8,67.9,29.83,ENE,57,6.2,12.2,97,0.00,,---,0.00,VWS V14.01,2013-03-20 06:50:00,
2013-03-20 01:55:00,68.6,67.7,29.83,NE,53,11.2,13.2,97,0.00,,---,0.00,VWS V14.01,2013-03-20 06:55:00,
2013-03-20 02:00:00,68.6,67.7,29.83,NE,44,9.2,14.2,97,0.00,,---,0.00,VWS V14.01,2013-03-20 07:00:00,
2013-03-20 02:05:00,68.6,67.7,29.83,NE,48,7.2,12.2,97,0.00,,---,0.00,VWS V14.01,2013-03-20 07:05:00,
2013-03-20 02:10:00,68.6,67.7,29.83,ENE,72,7.2,13.2,97,0.00,,---,0.00,VWS V14.01,2013-03-20 07:10:00,
2013-03-20 02:15:00,68.6,67.7,29.83,ENE,69,8.2,15.2,97,0.00,,---,0.00,VWS V14.01,2013-03-20 07:15:00,
2013-03-20 02:20:00,68.6,67.7,29.83,NE,50,10.2,12.2,97,0.00,,---,0.00,VWS V14.01,2013-03-20 07:20:00,
2013-03-20 02:25:00,68.6,67.7,29.83,NNE,28,5.2,15.2,97,0.00,,---,0.00,VWS V14.01,2013-03-20 07:25:00,
2013-03-20 02:30:00,68.6,67.7,29.83,ENE,70,5.2,14.2,97,0.00,,---,0.00,VWS V14.01,2013-03-20 07:30:00,
2013-03-20 02:35:00,68.6,67.7,29.83,NE,37,6.2,14.2,97,0.00,,---,0.00,VWS V14.01,2013-03-20 07:35:00,
2013-03-20 02:40:00,68.4,67.5,29.83,ENE,71,11.2,12.2,97,0.00,,---,0.00,VWS V14.01,2013-03-20 07:40:00,
2013-03-20 02:45:00,68.4,67.5,29.84,NE,51,10.2,13.2,97,0.00,,---,0.00,VWS V14.01,2013-03-20 07:45:00,
2013-03-20 02:50:00,68.3,67.4,29.84,NE,56,10.2,14.2,97,0.00,,---,0.00,VWS V14.01,2013-03-20 07:50:00,
2013-03-20 02:55:00,68.3,67.4,29.84,NNE,33,8.2,15.2,97,0.00,,---,0.00,VWS V14.01,2013-03-20 07:55:00,
2013-03-20 03:00:00,68.1,67.2,29.85,NE,54,8.2,12.2,97,0.00,,---,0.00,VWS V14.01,2013-03-20 08:00:00,
2013-03-20 03:05:00,68.1,67.2,29.85,NNE,23,7.2,12.2,97,0.00,,---,0.00,VWS V14.01,2013-03-20 08:05:00,
2013-03-20 03:10:00,68.1,67.2,29.85,NE,42,12.2,15.2,97,0.00,,---,0.00,VWS V14.01,2013-03-20 08:10:00,
2013-03-20 03:15:00,68.1,67.2,29.85,ENE,59,9.2,13.2,97,0.00,,---,0.00,VWS V14.01,2013-03-20 08:15:00,
2013-03-20 03:20:00,68.1,67.2,29.84,NE,44,7.2,14.2,97,0.00,,---,0.00,VWS V14.01,2013-03-20 08:20:00,
2013-03-20 03:25:00,68.1,67.2,29.84,ENE,64,8.2,12.2,97,0.00,,---,0.00,VWS V14.01,2013-03-20 08:25:00,
2013-03-20 03:30:00,68.1,67.2,29.84,ENE,69,4.2,12.2,97,0.00,,---,0.00,VWS V14.01,2013-03-20 08:30:00,
2013-03-20 03:35:00,67.9,67.0,29.84,ENE,57,11.2,16.2,97,0.00,,---,0.00,VWS V14.01,2013-03-20 08:35:00,
2013-03-20 03:40:00,68.1,67.2,29.84,North,5,7.2,13.2,97,0.00,,---,0.00,VWS V14.01,2013-03-20 08:40:00,
2013-03-20 03:45:00,67.9,67.0,29.84,NNE,21,11.2,13.2,97,0.00,,---,0.00,VWS V14.01,2013-03-20 08:45:00,
2013-03-20 03:50:00,67.9,67.0,29.86,NNE,30,8.2,14.2,97,0.00,,---,0.00,VWS V14.01,2013-03-20 08:50:00,
2013-03-20 03:55:00,67.9,67.0,29.86,NE,48,7.2,15.2,97,0.00,,---,0.00,VWS V14.01,2013-03-20 08:55:00,
2013-03-20 04:00:00,67.9,67.0,29.86,NE,34,12.2,14.2,97,0.00,,---,0.00,VWS V14.01,2013-03-20 09:00:00,
2013-03-20 04:05:00,67.9,67.0,29.85,NE,36,13.2,15.2,97,0.00,,---,0.00,VWS V14.01,2013-03-20 09:05:00,
2013-03-20 04:10:00,67.9,67.0,29.85,NE,48,10.2,14.2,97,0.00,,---,0.00,VWS V14.01,2013-03-20 09:10:00,
2013-03-20 04:15:00,67.8,66.9,29.85,NE,45,7.2,18.2,97,0.00,,---,0.00,VWS V14.01,2013-03-20 09:15:00,
2013-03-20 04:20:00,67.6,66.7,29.85,ENE,61,12.2,16.2,97,0.00,,---,0.00,VWS V14.01,2013-03-20 09:20:00,
2013-03-20 04:25:00,67.6,66.7,29.85,NNE,23,13.2,14.2,97,0.00,,---,0.00,VWS V14.01,2013-03-20 09:25:00,
2013-03-20 04:30:00,67.6,66.7,29.85,NE,46,12.2,17.2,97,0.00,,---,0.00,VWS V14.01,2013-03-20 09:30:00,
2013-03-20 04:35:00,67.6,66.7,29.86,NE,53,13.2,16.2,97,0.00,,---,0.00,VWS V14.01,2013-03-20 09:35:00,
2013-03-20 04:40:00,67.6,66.7,29.86,NE,49,5.2,17.2,97,0.00,,---,0.00,VWS V14.01,2013-03-20 09:40:00,
2013-03-20 04:45:00,67.4,66.5,29.86,NE,38,11.2,15.2,97,0.00,,---,0.00,VWS V14.01,2013-03-20 09:45:00,
2013-03-20 04:50:00,67.3,66.4,29.87,NE,53,11.2,16.2,97,0.00,,---,0.00,VWS V14.01,2013-03-20 09:50:00,
2013-03-20 04:55:00,67.3,66.4,29.87,ENE,62,7.2,19.2,97,0.00,,---,0.00,VWS V14.01,2013-03-20 09:55:00,
2013-03-20 05:00:00,67.4,66.5,29.87,NNE,19,6.2,13.2,97,0.00,,---,0.00,VWS V14.01,2013-03-20 10:00:00,
2013-03-20 05:05:00,67.4,66.5,29.88,NE,56,12.2,16.2,97,0.00,,---,0.00,VWS V14.01,2013-03-20 10:05:00,
2013-03-20 05:10:00,67.4,66.5,29.88,NE,53,7.2,16.2,97,0.00,,---,0.00,VWS V14.01,2013-03-20 10:10:00,
2013-03-20 05:15:00,67.4,66.5,29.88,NE,46,14.2,19.2,97,0.00,,---,0.00,VWS V14.01,2013-03-20 10:15:00,
2013-03-20 05:20:00,67.4,66.5,29.88,NE,38,13.2,15.2,97,0.00,,---,0.00,VWS V14.01,2013-03-20 10:20:00,
2013-03-20 05:25:00,67.6,66.7,29.88,NE,49,15.2,15.2,97,0.00,,---,0.00,VWS V14.01,2013-03-20 10:25:00,
2013-03-20 05:30:00,67.4,66.5,29.88,NE,44,12.2,18.2,97,0.00,,---,0.00,VWS V14.01,2013-03-20 10:30:00,
2013-03-20 05:35:00,67.6,66.7,29.89,NE,42,6.2,18.2,97,0.00,,---,0.00,VWS V14.01,2013-03-20 10:35:00,
2013-03-20 05:40:00,67.6,66.7,29.89,NE,44,12.2,19.2,97,0.00,,---,0.00,VWS V14.01,2013-03-20 10:40:00,
2013-03-20 05:45:00,67.6,66.7,29.89,NE,46,8.2,23.2,97,0.00,,---,0.00,VWS V14.01,2013-03-20 10:45:00,
2013-03-20 05:50:00,67.6,66.7,29.90,NE,36,11.2,22.2,97,0.00,,---,0.00,VWS V14.01,2013-03-20 10:50:00,
2013-03-20 05:55:00,67.9,67.0,29.90,ENE,67,15.2,21.2,97,0.00,,---,0.00,VWS V14.01,2013-03-20 10:55:00,
2013-03-20 06:00:00,68.1,67.2,29.90,NNE,25,7.2,23.2,97,0.01,,---,0.01,VWS V14.01,2013-03-20 11:00:00,
2013-03-20 06:05:00,68.3,67.4,29.90,NE,36,14.2,29.2,97,0.01,,---,0.01,VWS V14.01,2013-03-20 11:05:00,
2013-03-20 06:10:00,68.3,67.4,29.90,North,5,6.2,21.2,97,0.01,,---,0.01,VWS V14.01,2013-03-20 11:10:00,
2013-03-20 06:15:00,68.3,67.4,29.92,NE,48,10.2,20.2,97,0.01,,---,0.01,VWS V14.01,2013-03-20 11:15:00,
2013-03-20 06:20:00,68.1,67.2,29.92,NE,43,12.2,22.2,97,0.01,,---,0.01,VWS V14.01,2013-03-20 11:20:00,
2013-03-20 06:25:00,68.1,66.9,29.92,NNE,22,12.2,23.2,96,0.01,,---,0.01,VWS V14.01,2013-03-20 11:25:00,
2013-03-20 06:30:00,68.1,66.9,29.92,NE,52,18.2,26.2,96,0.01,,---,0.01,VWS V14.01,2013-03-20 11:30:00,
2013-03-20 06:35:00,68.1,66.6,29.93,North,9,20.2,26.2,95,0.01,,---,0.01,VWS V14.01,2013-03-20 11:35:00,
2013-03-20 06:40:00,68.4,66.9,29.93,ENE,65,18.2,22.2,95,0.01,,---,0.01,VWS V14.01,2013-03-20 11:40:00,
2013-03-20 06:45:00,68.4,66.6,29.93,NE,34,11.2,24.2,94,0.01,,---,0.01,VWS V14.01,2013-03-20 11:45:00,
2013-03-20 06:50:00,68.3,66.2,29.95,NE,46,18.2,23.2,93,0.01,,---,0.01,VWS V14.01,2013-03-20 11:50:00,
2013-03-20 06:55:00,68.1,65.7,29.95,NE,47,11.2,26.2,92,0.01,,---,0.01,VWS V14.01,2013-03-20 11:55:00,
2013-03-20 07:00:00,68.1,65.7,29.95,NE,42,11.2,25.2,92,0.01,,---,0.01,VWS V14.01,2013-03-20 12:00:00,
2013-03-20 07:05:00,67.6,64.6,29.95,NE,42,16.2,26.2,90,0.00,,---,0.01,VWS V14.01,2013-03-20 12:05:00,
2013-03-20 07:10:00,66.9,63.6,29.95,NE,34,18.2,28.2,89,0.00,,---,0.01,VWS V14.01,2013-03-20 12:10:00,
2013-03-20 07:15:00,65.8,61.8,29.95,NNE,29,20.2,21.2,87,0.00,,---,0.01,VWS V14.01,2013-03-20 12:15:00,
2013-03-20 07:20:00,64.8,60.2,29.96,NE,51,11.2,24.2,85,0.00,,---,0.01,VWS V14.01,2013-03-20 12:20:00,
2013-03-20 07:25:00,64.3,59.4,29.96,NNE,31,21.2,28.2,84,0.00,,---,0.01,VWS V14.01,2013-03-20 12:25:00,
2013-03-20 07:30:00,64.2,58.9,29.96,NNE,24,19.2,25.2,83,0.00,,---,0.01,VWS V14.01,2013-03-20 12:30:00,
2013-03-20 07:35:00,64.2,58.9,29.97,ENE,61,16.2,23.2,83,0.00,,---,0.01,VWS V14.01,2013-03-20 12:35:00,
2013-03-20 07:40:00,64.3,59.0,29.97,NE,34,19.2,24.2,83,0.00,,---,0.01,VWS V14.01,2013-03-20 12:40:00,
2013-03-20 07:45:00,64.5,59.2,29.97,NE,38,12.2,25.2,83,0.00,,---,0.01,VWS V14.01,2013-03-20 12:45:00,
2013-03-20 07:50:00,64.5,58.9,29.98,North,350,16.2,24.2,82,0.00,,---,0.01,VWS V14.01,2013-03-20 12:50:00,
2013-03-20 07:55:00,64.7,58.7,29.98,NE,43,14.2,29.2,81,0.00,,---,0.01,VWS V14.01,2013-03-20 12:55:00,
2013-03-20 08:00:00,64.7,58.4,29.98,ENE,61,21.2,27.2,80,0.00,,---,0.01,VWS V14.01,2013-03-20 13:00:00,
2013-03-20 08:05:00,64.7,57.7,29.99,NE,44,24.2,32.2,78,0.01,,---,0.02,VWS V14.01,2013-03-20 13:05:00,
2013-03-20 08:10:00,64.5,57.1,29.99,NE,46,23.2,28.2,77,0.01,,---,0.02,VWS V14.01,2013-03-20 13:10:00,
2013-03-20 08:15:00,64.5,56.8,29.99,NNE,31,17.2,26.2,76,0.01,,---,0.02,VWS V14.01,2013-03-20 13:15:00,
2013-03-20 08:20:00,64.5,56.4,29.99,NE,46,21.2,28.2,75,0.01,,---,0.02,VWS V14.01,2013-03-20 13:20:00,
2013-03-20 08:25:00,64.7,57.0,29.99,ENE,77,21.2,25.2,76,0.01,,---,0.02,VWS V14.01,2013-03-20 13:25:00,
2013-03-20 08:30:00,64.7,55.5,29.99,NE,40,18.2,30.2,72,0.01,,---,0.02,VWS V14.01,2013-03-20 13:30:00,
2013-03-20 08:35:00,65.0,55.8,30.01,NE,55,16.2,27.2,72,0.01,,---,0.02,VWS V14.01,2013-03-20 13:35:00,
2013-03-20 08:40:00,65.3,56.0,30.01,NE,51,15.2,29.2,72,0.01,,---,0.02,VWS V14.01,2013-03-20 13:40:00,
2013-03-20 08:45:00,65.5,55.9,30.01,NNE,25,20.2,26.2,71,0.01,,---,0.02,VWS V14.01,2013-03-20 13:45:00,
2013-03-20 08:50:00,65.6,54.8,30.02,NE,49,19.2,24.2,68,0.01,,---,0.02,VWS V14.01,2013-03-20 13:50:00,
2013-03-20 08:55:00,65.8,54.5,30.02,ENE,73,8.2,25.2,67,0.01,,---,0.02,VWS V14.01,2013-03-20 13:55:00,
2013-03-20 09:00:00,66.0,53.9,30.02,NNE,16,13.2,29.2,65,0.01,,---,0.02,VWS V14.01,2013-03-20 14:00:00,
2013-03-20 09:05:00,66.1,54.4,30.03,NE,43,18.2,29.2,66,0.01,,---,0.02,VWS V14.01,2013-03-20 14:05:00,
2013-03-20 09:10:00,66.3,52.5,30.03,East,85,13.2,37.2,61,0.00,,---,0.02,VWS V14.01,2013-03-20 14:10:00,
2013-03-20 09:15:00,66.4,53.0,30.03,NE,55,24.2,26.2,62,0.00,,---,0.02,VWS V14.01,2013-03-20 14:15:00,
2013-03-20 09:20:00,66.3,52.9,30.03,ENE,70,16.2,31.2,62,0.00,,---,0.02,VWS V14.01,2013-03-20 14:20:00,
2013-03-20 09:25:00,66.6,53.6,30.03,ENE,71,13.2,30.2,63,0.00,,---,0.02,VWS V14.01,2013-03-20 14:25:00,
2013-03-20 09:30:00,66.8,52.9,30.03,NE,42,12.2,26.2,61,0.00,,---,0.02,VWS V14.01,2013-03-20 14:30:00,
2013-03-20 09:35:00,67.1,53.7,30.03,ENE,57,21.2,26.2,62,0.00,,---,0.02,VWS V14.01,2013-03-20 14:35:00,
2013-03-20 09:40:00,67.1,54.1,30.03,ENE,63,21.2,25.2,63,0.00,,---,0.02,VWS V14.01,2013-03-20 14:40:00,
2013-03-20 09:45:00,67.3,54.3,30.03,NE,36,17.2,34.2,63,0.00,,---,0.02,VWS V14.01,2013-03-20 14:45:00,
2013-03-20 09:50:00,67.6,54.6,30.04,NE,40,20.2,24.2,63,0.00,,---,0.02,VWS V14.01,2013-03-20 14:50:00,
2013-03-20 09:55:00,67.6,54.1,30.04,ENE,65,20.2,21.2,62,0.00,,---,0.02,VWS V14.01,2013-03-20 14:55:00,
2013-03-20 10:00:00,67.6,54.6,30.04,NNE,19,16.2,26.2,63,0.00,,---,0.02,VWS V14.01,2013-03-20 15:00:00,
2013-03-20 10:05:00,67.6,54.1,30.04,ENE,76,25.2,27.2,62,0.00,,---,0.02,VWS V14.01,2013-03-20 15:05:00,
2013-03-20 10:10:00,67.6,54.1,30.04,East,88,17.2,25.2,62,0.00,,---,0.02,VWS V14.01,2013-03-20 15:10:00,
2013-03-20 10:15:00,67.8,53.9,30.04,NE,52,24.2,27.2,61,0.00,,---,0.02,VWS V14.01,2013-03-20 15:15:00,
2013-03-20 10:20:00,67.8,54.8,30.05,NE,56,11.2,21.2,63,0.00,,---,0.02,VWS V14.01,2013-03-20 15:20:00,
2013-03-20 10:25:00,68.3,55.2,30.05,NE,42,14.2,20.2,63,0.00,,---,0.02,VWS V14.01,2013-03-20 15:25:00,
2013-03-20 10:30:00,68.3,55.2,30.05,NE,39,19.2,25.2,63,0.00,,---,0.02,VWS V14.01,2013-03-20 15:30:00,
2013-03-20 10:35:00,68.4,55.3,30.05,NE,54,12.2,22.2,63,0.00,,---,0.02,VWS V14.01,2013-03-20 15:35:00,
2013-03-20 10:40:00,68.3,55.2,30.05,East,81,16.2,22.2,63,0.00,,---,0.02,VWS V14.01,2013-03-20 15:40:00,
2013-03-20 10:45:00,68.4,54.9,30.05,ENE,66,17.2,24.2,62,0.00,,---,0.02,VWS V14.01,2013-03-20 15:45:00,
2013-03-20 10:50:00,68.3,55.2,30.07,NE,51,11.2,26.2,63,0.00,,---,0.02,VWS V14.01,2013-03-20 15:50:00,
2013-03-20 10:55:00,68.3,55.2,30.07,NE,54,20.2,24.2,63,0.00,,---,0.02,VWS V14.01,2013-03-20 15:55:00,
2013-03-20 11:00:00,68.8,55.7,30.07,ENE,78,14.2,19.2,63,0.00,,---,0.02,VWS V14.01,2013-03-20 16:00:00,
2013-03-20 11:05:00,68.9,55.8,30.06,ENE,63,14.2,25.2,63,0.00,,---,0.02,VWS V14.01,2013-03-20 16:05:00,
2013-03-20 11:10:00,68.8,56.1,30.06,NE,36,14.2,22.2,64,0.00,,---,0.02,VWS V14.01,2013-03-20 16:10:00,
2013-03-20 11:15:00,68.6,56.8,30.06,East,80,14.2,19.2,66,0.00,,---,0.02,VWS V14.01,2013-03-20 16:15:00,
2013-03-20 11:20:00,68.6,57.2,30.07,ENE,78,15.2,22.2,67,0.00,,---,0.02,VWS V14.01,2013-03-20 16:20:00,
2013-03-20 11:25:00,69.1,57.3,30.07,ENE,67,19.2,21.2,66,0.00,,---,0.02,VWS V14.01,2013-03-20 16:25:00,
2013-03-20 11:30:00,69.3,57.5,30.07,NE,45,18.2,21.2,66,0.00,,---,0.02,VWS V14.01,2013-03-20 16:30:00,
2013-03-20 11:35:00,69.1,56.8,30.07,ENE,67,10.2,23.2,65,0.00,,---,0.02,VWS V14.01,2013-03-20 16:35:00,
2013-03-20 11:40:00,69.3,57.5,30.07,East,79,19.2,23.2,66,0.00,,---,0.02,VWS V14.01,2013-03-20 16:40:00,
2013-03-20 11:45:00,68.9,57.5,30.07,ENE,57,13.2,24.2,67,0.00,,---,0.02,VWS V14.01,2013-03-20 16:45:00,
2013-03-20 11:49:00,68.9,57.9,30.06,NE,51,14.2,22.2,68,0.00,,---,0.02,VWS V14.01,2013-03-20 16:49:00,
2013-03-20 11:50:00,68.9,57.5,30.06,ENE,71,13.2,22.2,67,0.00,,---,0.02,VWS V14.01,2013-03-20 16:50:00,
2013-03-20 11:54:00,69.3,57.9,30.06,NE,44,22.2,22.2,67,0.00,,---,0.02,VWS V14.01,2013-03-20 16:54:00,
2013-03-20 11:55:00,69.1,58.1,30.06,NE,34,8.2,22.2,68,0.00,,---,0.02,VWS V14.01,2013-03-20 16:55:00,
2013-03-20 11:59:00,69.4,58.0,30.06,NE,36,12.2,23.2,67,0.00,,---,0.02,VWS V14.01,2013-03-20 16:59:00,
2013-03-20 12:00:00,69.8,58.4,30.07,NE,46,9.2,23.2,67,0.00,,---,0.02,VWS V14.01,2013-03-20 17:00:00,
2013-03-20 12:04:00,70.1,57.8,30.07,NE,42,16.2,19.2,65,0.00,,---,0.02,VWS V14.01,2013-03-20 17:04:00,
2013-03-20 12:05:00,69.8,57.9,30.07,ENE,77,15.2,22.2,66,0.00,,---,0.02,VWS V14.01,2013-03-20 17:05:00,
2013-03-20 12:09:00,69.1,57.7,30.07,NNE,33,6.2,29.2,67,0.00,,---,0.02,VWS V14.01,2013-03-20 17:09:00,
2013-03-20 12:10:00,68.9,57.5,30.07,NE,34,12.2,29.2,67,0.00,,---,0.02,VWS V14.01,2013-03-20 17:10:00,
2013-03-20 12:14:00,69.1,57.3,30.07,NE,55,16.2,27.2,66,0.00,,---,0.02,VWS V14.01,2013-03-20 17:14:00,
2013-03-20 12:15:00,69.3,57.9,30.07,ENE,66,8.2,27.2,67,0.00,,---,0.02,VWS V14.01,2013-03-20 17:15:00,
2013-03-20 12:19:00,69.3,57.9,30.07,ENE,62,14.2,23.2,67,0.00,,---,0.02,VWS V14.01,2013-03-20 17:19:00,
2013-03-20 12:20:00,69.4,57.6,30.07,NE,46,12.2,23.2,66,0.00,,---,0.02,VWS V14.01,2013-03-20 17:20:00,
2013-03-20 12:24:00,69.6,57.3,30.07,ENE,59,10.2,24.2,65,0.00,,---,0.02,VWS V14.01,2013-03-20 17:24:00,
2013-03-20 12:25:00,69.3,57.5,30.07,NE,54,14.2,26.2,66,0.00,,---,0.02,VWS V14.01,2013-03-20 17:25:00,
2013-03-20 12:29:00,69.3,57.9,30.07,ENE,59,15.2,19.2,67,0.00,,---,0.02,VWS V14.01,2013-03-20 17:29:00,
2013-03-20 12:30:00,69.3,57.9,30.07,ENE,60,12.2,21.2,67,0.00,,---,0.02,VWS V14.01,2013-03-20 17:30:00,
2013-03-20 12:34:00,69.4,58.4,30.07,ENE,69,16.2,22.2,68,0.00,,---,0.02,VWS V14.01,2013-03-20 17:34:00,
2013-03-20 12:35:00,69.4,58.4,30.07,NE,47,18.2,22.2,68,0.00,,---,0.02,VWS V14.01,2013-03-20 17:35:00,
2013-03-20 12:39:00,69.6,58.2,30.07,ENE,62,17.2,23.2,67,0.00,,---,0.02,VWS V14.01,2013-03-20 17:39:00,
2013-03-20 12:40:00,69.8,58.4,30.07,NNE,29,18.2,23.2,67,0.00,,---,0.02,VWS V14.01,2013-03-20 17:40:00,
2013-03-20 12:44:00,69.6,58.2,30.07,ENE,74,15.2,23.2,67,0.00,,---,0.02,VWS V14.01,2013-03-20 17:44:00,
2013-03-20 12:45:00,69.8,58.4,30.07,NE,45,14.2,23.2,67,0.00,,---,0.02,VWS V14.01,2013-03-20 17:45:00,
2013-03-20 12:49:00,69.9,58.9,30.07,NE,38,21.2,21.2,68,0.00,,---,0.02,VWS V14.01,2013-03-20 17:49:00,
2013-03-20 12:50:00,69.9,58.5,30.07,ENE,69,12.2,21.2,67,0.00,,---,0.02,VWS V14.01,2013-03-20 17:50:00,
2013-03-20 12:54:00,70.1,58.7,30.07,NE,40,21.2,21.2,67,0.00,,---,0.02,VWS V14.01,2013-03-20 17:54:00,
2013-03-20 12:55:00,70.1,59.1,30.07,ESE,102,10.2,21.2,68,0.00,,---,0.02,VWS V14.01,2013-03-20 17:55:00,
2013-03-20 12:59:00,69.9,58.5,30.07,ENE,60,18.2,22.2,67,0.00,,---,0.02,VWS V14.01,2013-03-20 17:59:00,
2013-03-20 13:00:00,70.1,59.1,30.07,ENE,74,12.2,22.2,68,0.00,,---,0.02,VWS V14.01,2013-03-20 18:00:00,
2013-03-20 13:04:00,69.9,58.9,30.07,NNE,18,19.2,21.2,68,0.00,,---,0.02,VWS V14.01,2013-03-20 18:04:00,
2013-03-20 13:05:00,69.6,58.6,30.07,ENE,69,8.2,21.2,68,0.00,,---,0.02,VWS V14.01,2013-03-20 18:05:00,
2013-03-20 13:09:00,69.8,58.8,30.07,ENE,63,11.2,23.2,68,0.00,,---,0.02,VWS V14.01,2013-03-20 18:09:00,
2013-03-20 13:10:00,69.9,59.3,30.07,NE,41,12.2,23.2,69,0.00,,---,0.02,VWS V14.01,2013-03-20 18:10:00,
2013-03-20 13:14:00,70.6,59.5,30.07,NE,51,16.2,18.2,68,0.00,,---,0.02,VWS V14.01,2013-03-20 18:14:00,
2013-03-20 13:15:00,70.9,59.4,30.07,NE,44,19.2,19.2,67,0.00,,---,0.02,VWS V14.01,2013-03-20 18:15:00,
2013-03-20 13:19:00,70.6,59.5,30.07,ENE,62,12.2,25.2,68,0.00,,---,0.02,VWS V14.01,2013-03-20 18:19:00,
2013-03-20 13:20:00,70.8,58.9,30.07,East,82,15.2,25.2,66,0.00,,---,0.02,VWS V14.01,2013-03-20 18:20:00,
2013-03-20 13:24:00,70.8,58.9,30.07,ENE,67,13.2,21.2,66,0.00,,---,0.02,VWS V14.01,2013-03-20 18:24:00,
2013-03-20 13:25:00,70.8,59.3,30.07,NE,45,14.2,21.2,67,0.00,,---,0.02,VWS V14.01,2013-03-20 18:25:00,
2013-03-20 13:29:00,70.8,59.7,30.07,East,90,12.2,18.2,68,0.00,,---,0.02,VWS V14.01,2013-03-20 18:29:00,
2013-03-20 13:30:00,70.6,58.7,30.07,NE,45,17.2,19.2,66,0.00,,---,0.02,VWS V14.01,2013-03-20 18:30:00,
2013-03-20 13:34:00,70.9,59.4,30.07,East,81,13.2,20.2,67,0.00,,---,0.02,VWS V14.01,2013-03-20 18:34:00,
2013-03-20 13:35:00,70.9,58.6,30.07,NE,36,10.2,20.2,65,0.00,,---,0.02,VWS V14.01,2013-03-20 18:35:00,
2013-03-20 13:39:00,70.8,58.9,30.07,ENE,78,11.2,21.2,66,0.00,,---,0.02,VWS V14.01,2013-03-20 18:39:00,
2013-03-20 13:40:00,70.8,58.9,30.07,East,84,14.2,21.2,66,0.00,,---,0.02,VWS V14.01,2013-03-20 18:40:00,
2013-03-20 13:44:00,70.9,58.6,30.07,ENE,76,12.2,20.2,65,0.00,,---,0.02,VWS V14.01,2013-03-20 18:44:00,
2013-03-20 13:45:00,70.8,58.5,30.06,NE,51,11.2,20.2,65,0.00,,---,0.02,VWS V14.01,2013-03-20 18:45:00,
2013-03-20 13:49:00,70.9,59.0,30.06,NE,55,13.2,21.2,66,0.00,,---,0.02,VWS V14.01,2013-03-20 18:49:00,
2013-03-20 13:50:00,70.9,59.0,30.06,ENE,67,17.2,21.2,66,0.00,,---,0.02,VWS V14.01,2013-03-20 18:50:00,
2013-03-20 13:54:00,70.6,59.1,30.06,ENE,69,12.2,20.2,67,0.00,,---,0.02,VWS V14.01,2013-03-20 18:54:00,
2013-03-20 13:55:00,70.6,58.7,30.06,NE,53,12.2,20.2,66,0.00,,---,0.02,VWS V14.01,2013-03-20 18:55:00,
2013-03-20 13:59:00,71.1,59.2,30.06,NE,48,11.2,17.2,66,0.00,,---,0.02,VWS V14.01,2013-03-20 18:59:00,
2013-03-20 14:00:00,71.3,59.4,30.06,NE,51,11.2,17.2,66,0.00,,---,0.02,VWS V14.01,2013-03-20 19:00:00,
2013-03-20 14:04:00,71.6,59.7,30.05,ENE,78,12.2,15.2,66,0.00,,---,0.02,VWS V14.01,2013-03-20 19:04:00,
2013-03-20 14:05:00,71.6,59.2,30.06,ENE,57,21.2,21.2,65,0.00,,---,0.02,VWS V14.01,2013-03-20 19:05:00,
2013-03-20 14:09:00,71.1,59.6,30.05,ENE,69,11.2,21.2,67,0.00,,---,0.02,VWS V14.01,2013-03-20 19:09:00,
2013-03-20 14:10:00,71.1,59.6,30.06,NE,54,11.2,21.2,67,0.00,,---,0.02,VWS V14.01,2013-03-20 19:10:00,
2013-03-20 14:14:00,70.9,59.8,30.05,ENE,58,20.2,21.2,68,0.00,,---,0.02,VWS V14.01,2013-03-20 19:14:00,
2013-03-20 14:15:00,70.8,59.3,30.05,East,80,10.2,21.2,67,0.00,,---,0.02,VWS V14.01,2013-03-20 19:15:00,
2013-03-20 14:19:00,70.6,59.5,30.05,ENE,71,16.2,20.2,68,0.00,,---,0.02,VWS V14.01,2013-03-20 19:19:00,
2013-03-20 14:20:00,70.9,59.0,30.05,NE,56,13.2,20.2,66,0.00,,---,0.02,VWS V14.01,2013-03-20 19:20:00,
2013-03-20 14:24:00,71.1,58.3,30.05,ENE,76,15.2,21.2,64,0.00,,---,0.02,VWS V14.01,2013-03-20 19:24:00,
2013-03-20 14:25:00,71.1,58.8,30.05,ENE,76,12.2,21.2,65,0.00,,---,0.02,VWS V14.01,2013-03-20 19:25:00,
2013-03-20 14:29:00,71.1,59.2,30.05,NE,34,19.2,20.2,66,0.00,,---,0.02,VWS V14.01,2013-03-20 19:29:00,
2013-03-20 14:30:00,71.1,59.2,30.04,ENE,62,9.2,20.2,66,0.00,,---,0.02,VWS V14.01,2013-03-20 19:30:00,
2013-03-20 14:34:00,71.5,59.1,30.04,ENE,71,15.2,19.2,65,0.00,,---,0.02,VWS V14.01,2013-03-20 19:34:00,
2013-03-20 14:35:00,71.5,59.1,30.04,NE,50,15.2,22.2,65,0.00,,---,0.02,VWS V14.01,2013-03-20 19:35:00,
2013-03-20 14:39:00,71.6,59.7,30.04,ENE,57,17.2,21.2,66,0.00,,---,0.02,VWS V14.01,2013-03-20 19:39:00,
2013-03-20 14:40:00,71.6,59.2,30.04,NE,36,17.2,21.2,65,0.00,,---,0.02,VWS V14.01,2013-03-20 19:40:00,
2013-03-20 14:44:00,71.6,59.2,30.04,NNE,30,17.2,19.2,65,0.00,,---,0.02,VWS V14.01,2013-03-20 19:44:00,
2013-03-20 14:45:00,71.5,58.7,30.03,NE,55,8.2,19.2,64,0.00,,---,0.02,VWS V14.01,2013-03-20 19:45:00,
2013-03-20 14:49:00,71.6,59.2,30.03,NE,46,11.2,21.2,65,0.00,,---,0.02,VWS V14.01,2013-03-20 19:49:00,
2013-03-20 14:50:00,71.8,59.4,30.03,ENE,61,16.2,21.2,65,0.00,,---,0.02,VWS V14.01,2013-03-20 19:50:00,
2013-03-20 14:54:00,71.5,58.7,30.03,NE,45,14.2,23.2,64,0.00,,---,0.02,VWS V14.01,2013-03-20 19:54:00,
2013-03-20 14:55:00,71.5,58.7,30.03,East,79,6.2,23.2,64,0.00,,---,0.02,VWS V14.01,2013-03-20 19:55:00,
2013-03-20 14:59:00,71.6,59.7,30.03,NNE,27,20.2,20.2,66,0.00,,---,0.02,VWS V14.01,2013-03-20 19:59:00,
2013-03-20 15:00:00,71.6,58.8,30.03,NNE,18,15.2,20.2,64,0.00,,---,0.02,VWS V14.01,2013-03-20 20:00:00,
2013-03-20 15:04:00,72.1,59.3,30.03,NNE,22,13.2,18.2,64,0.00,,---,0.02,VWS V14.01,2013-03-20 20:04:00,
2013-03-20 15:05:00,72.5,58.8,30.03,NNE,24,14.2,18.2,62,0.00,,---,0.02,VWS V14.01,2013-03-20 20:05:00,
2013-03-20 15:09:00,72.3,59.0,30.03,NE,55,14.2,20.2,63,0.00,,---,0.02,VWS V14.01,2013-03-20 20:09:00,
2013-03-20 15:10:00,72.1,58.8,30.03,ENE,61,10.2,22.2,63,0.00,,---,0.02,VWS V14.01,2013-03-20 20:10:00,
2013-03-20 15:14:00,71.8,59.0,30.03,NE,40,16.2,21.2,64,0.00,,---,0.02,VWS V14.01,2013-03-20 20:14:00,
2013-03-20 15:15:00,72.0,59.2,30.02,ENE,64,13.2,21.2,64,0.00,,---,0.02,VWS V14.01,2013-03-20 20:15:00,
2013-03-20 15:19:00,71.8,58.5,30.02,ENE,73,6.2,19.2,63,0.00,,---,0.02,VWS V14.01,2013-03-20 20:19:00,
2013-03-20 15:20:00,72.1,58.8,30.02,NE,43,6.2,19.2,63,0.00,,---,0.02,VWS V14.01,2013-03-20 20:20:00,
2013-03-20 15:24:00,72.5,59.2,30.02,ENE,65,8.2,18.2,63,0.00,,---,0.02,VWS V14.01,2013-03-20 20:24:00,
2013-03-20 15:25:00,72.5,58.8,30.02,ENE,63,11.2,18.2,62,0.00,,---,0.02,VWS V14.01,2013-03-20 20:25:00,
2013-03-20 15:29:00,72.3,59.0,30.02,ENE,58,12.2,20.2,63,0.00,,---,0.02,VWS V14.01,2013-03-20 20:29:00,
2013-03-20 15:30:00,72.3,59.0,30.02,NNE,28,16.2,20.2,63,0.00,,---,0.02,VWS V14.01,2013-03-20 20:30:00,
2013-03-20 15:34:00,72.1,58.4,30.02,NE,44,13.2,22.2,62,0.00,,---,0.02,VWS V14.01,2013-03-20 20:34:00,
2013-03-20 15:35:00,72.0,58.7,30.02,NNE,28,10.2,22.2,63,0.00,,---,0.02,VWS V14.01,2013-03-20 20:35:00,
2013-03-20 15:39:00,72.0,58.7,30.02,East,80,12.2,21.2,63,0.00,,---,0.02,VWS V14.01,2013-03-20 20:39:00,
2013-03-20 15:40:00,72.1,58.8,30.02,ENE,59,12.2,21.2,63,0.00,,---,0.02,VWS V14.01,2013-03-20 20:40:00,
2013-03-20 15:44:00,72.1,58.4,30.02,NE,56,15.2,22.2,62,0.00,,---,0.02,VWS V14.01,2013-03-20 20:44:00,
2013-03-20 15:45:00,72.0,58.7,30.02,NE,51,20.2,22.2,63,0.00,,---,0.02,VWS V14.01,2013-03-20 20:45:00,
2013-03-20 15:49:00,72.0,58.3,30.02,NE,48,5.2,21.2,62,0.00,,---,0.02,VWS V14.01,2013-03-20 20:49:00,
2013-03-20 15:50:00,72.3,58.6,30.02,NE,36,16.2,21.2,62,0.00,,---,0.02,VWS V14.01,2013-03-20 20:50:00,
2013-03-20 15:54:00,72.1,58.4,30.02,ENE,57,7.2,21.2,62,0.00,,---,0.02,VWS V14.01,2013-03-20 20:54:00,
2013-03-20 15:55:00,72.3,58.1,30.02,NE,39,19.2,21.2,61,0.00,,---,0.02,VWS V14.01,2013-03-20 20:55:00,
2013-03-20 15:59:00,72.3,58.6,30.02,NE,55,12.2,21.2,62,0.00,,---,0.02,VWS V14.01,2013-03-20 20:59:00,
2013-03-20 16:00:00,72.3,58.6,30.01,ENE,63,11.2,21.2,62,0.00,,---,0.02,VWS V14.01,2013-03-20 21:00:00,
2013-03-20 16:04:00,72.5,57.8,30.01,NE,51,23.2,23.2,60,0.00,,---,0.02,VWS V14.01,2013-03-20 21:04:00,
2013-03-20 16:05:00,72.3,58.1,30.01,ENE,62,14.2,23.2,61,0.00,,---,0.02,VWS V14.01,2013-03-20 21:05:00,
2013-03-20 16:09:00,72.7,59.4,30.01,ENE,57,13.2,17.2,63,0.00,,---,0.02,VWS V14.01,2013-03-20 21:09:00,
2013-03-20 16:10:00,72.8,59.0,30.01,North,11,20.2,20.2,62,0.00,,---,0.02,VWS V14.01,2013-03-20 21:10:00,
2013-03-20 16:14:00,72.3,59.0,30.01,ENE,58,10.2,20.2,63,0.00,,---,0.02,VWS V14.01,2013-03-20 21:14:00,
2013-03-20 16:15:00,72.1,59.7,30.01,NE,56,7.2,20.2,65,0.00,,---,0.02,VWS V14.01,2013-03-20 21:15:00,
2013-03-20 16:19:00,72.1,60.5,30.01,ENE,74,8.2,17.2,67,0.00,,---,0.02,VWS V14.01,2013-03-20 21:19:00,
2013-03-20 16:20:00,72.1,60.5,30.01,ENE,59,18.2,19.2,67,0.00,,---,0.02,VWS V14.01,2013-03-20 21:20:00,
2013-03-20 16:24:00,71.6,60.1,30.01,ENE,69,7.2,18.2,67,0.00,,---,0.02,VWS V14.01,2013-03-20 21:24:00,
2013-03-20 16:25:00,71.6,60.5,30.01,NE,45,12.2,18.2,68,0.00,,---,0.02,VWS V14.01,2013-03-20 21:25:00,
2013-03-20 16:29:00,71.6,60.1,30.01,ENE,71,10.2,17.2,67,0.00,,---,0.02,VWS V14.01,2013-03-20 21:29:00,
2013-03-20 16:30:00,71.6,60.1,30.01,ENE,62,7.2,17.2,67,0.00,,---,0.02,VWS V14.01,2013-03-20 21:30:00,
2013-03-20 16:34:00,72.1,60.5,30.01,NE,42,13.2,16.2,67,0.00,,---,0.02,VWS V14.01,2013-03-20 21:34:00,
2013-03-20 16:35:00,72.0,60.5,30.01,NE,49,18.2,19.2,67,0.00,,---,0.02,VWS V14.01,2013-03-20 21:35:00,
2013-03-20 16:39:00,71.8,60.3,30.01,East,86,11.2,18.2,67,0.00,,---,0.02,VWS V14.01,2013-03-20 21:39:00,
2013-03-20 16:40:00,72.0,60.5,30.01,East,84,12.2,18.2,67,0.00,,---,0.02,VWS V14.01,2013-03-20 21:40:00,
2013-03-20 16:44:00,71.8,59.8,30.01,NE,36,9.2,17.2,66,0.00,,---,0.02,VWS V14.01,2013-03-20 21:44:00,
2013-03-20 16:45:00,72.0,60.5,30.00,ENE,57,11.2,17.2,67,0.00,,---,0.02,VWS V14.01,2013-03-20 21:45:00,
2013-03-20 16:49:00,71.8,59.8,30.00,NE,50,13.2,18.2,66,0.00,,---,0.02,VWS V14.01,2013-03-20 21:49:00,
2013-03-20 16:50:00,71.6,59.7,30.00,NE,49,11.2,18.2,66,0.00,,---,0.02,VWS V14.01,2013-03-20 21:50:00,
2013-03-20 16:54:00,71.6,59.2,30.00,ENE,62,17.2,17.2,65,0.00,,---,0.02,VWS V14.01,2013-03-20 21:54:00,
2013-03-20 16:55:00,71.5,59.6,30.00,ENE,70,10.2,17.2,66,0.00,,---,0.02,VWS V14.01,2013-03-20 21:55:00,
2013-03-20 16:59:00,71.3,59.4,30.00,NE,49,11.2,17.2,66,0.00,,---,0.02,VWS V14.01,2013-03-20 21:59:00,
2013-03-20 17:00:00,71.3,59.8,30.00,NE,53,7.2,17.2,67,0.00,,---,0.02,VWS V14.01,2013-03-20 22:00:00,
2013-03-20 17:04:00,71.3,59.4,30.00,ENE,61,5.2,16.2,66,0.00,,---,0.02,VWS V14.01,2013-03-20 22:04:00,
2013-03-20 17:05:00,71.5,59.1,30.00,ENE,65,8.2,19.2,65,0.00,,---,0.02,VWS V14.01,2013-03-20 22:05:00,
2013-03-20 17:09:00,71.3,58.9,30.00,NE,48,12.2,18.2,65,0.00,,---,0.02,VWS V14.01,2013-03-20 22:09:00,
2013-03-20 17:10:00,71.5,58.7,30.00,ENE,58,11.2,18.2,64,0.00,,---,0.02,VWS V14.01,2013-03-20 22:10:00,
2013-03-20 17:14:00,71.6,59.2,30.00,ENE,67,16.2,18.2,65,0.00,,---,0.02,VWS V14.01,2013-03-20 22:14:00,
2013-03-20 17:15:00,71.5,58.7,29.99,ENE,74,10.2,18.2,64,0.00,,---,0.02,VWS V14.01,2013-03-20 22:15:00,
2013-03-20 17:19:00,71.3,58.5,29.99,East,96,13.2,19.2,64,0.00,,---,0.02,VWS V14.01,2013-03-20 22:19:00,
2013-03-20 17:20:00,71.3,58.5,29.99,NE,54,15.2,19.2,64,0.00,,---,0.02,VWS V14.01,2013-03-20 22:20:00,
2013-03-20 17:24:00,71.1,58.3,29.99,ENE,77,13.2,20.2,64,0.00,,---,0.02,VWS V14.01,2013-03-20 22:24:00,
2013-03-20 17:25:00,71.1,58.3,29.99,NE,41,10.2,20.2,64,0.00,,---,0.02,VWS V14.01,2013-03-20 22:25:00,
2013-03-20 17:29:00,71.1,58.3,29.99,ENE,78,12.2,18.2,64,0.00,,---,0.02,VWS V14.01,2013-03-20 22:29:00,
2013-03-20 17:30:00,71.1,58.3,29.99,East,98,13.2,18.2,64,0.00,,---,0.02,VWS V14.01,2013-03-20 22:30:00,
2013-03-20 17:34:00,71.3,58.9,29.99,NE,46,16.2,16.2,65,0.00,,---,0.02,VWS V14.01,2013-03-20 22:34:00,
2013-03-20 17:35:00,71.1,58.8,29.99,East,83,13.2,16.2,65,0.00,,---,0.02,VWS V14.01,2013-03-20 22:35:00,
2013-03-20 17:39:00,70.8,58.9,29.99,ENE,69,6.2,17.2,66,0.00,,---,0.02,VWS V14.01,2013-03-20 22:39:00,
2013-03-20 17:40:00,70.8,58.9,29.99,East,81,12.2,17.2,66,0.00,,---,0.02,VWS V14.01,2013-03-20 22:40:00,
2013-03-20 17:44:00,70.8,60.5,29.99,ENE,62,10.2,19.2,70,0.00,,---,0.02,VWS V14.01,2013-03-20 22:44:00,
2013-03-20 17:45:00,70.4,61.3,30.00,ENE,57,13.2,19.2,73,0.00,,---,0.02,VWS V14.01,2013-03-20 22:45:00,
2013-03-20 17:49:00,69.9,61.2,30.00,ENE,76,8.2,15.2,74,0.00,,---,0.02,VWS V14.01,2013-03-20 22:49:00,
2013-03-20 17:50:00,69.4,60.8,30.00,ENE,59,11.2,16.2,74,0.00,,---,0.02,VWS V14.01,2013-03-20 22:50:00,
2013-03-20 17:54:00,69.1,61.2,30.00,East,82,7.2,14.2,76,0.00,,---,0.02,VWS V14.01,2013-03-20 22:54:00,
2013-03-20 17:55:00,68.9,60.7,30.00,ENE,69,13.2,15.2,75,0.00,,---,0.02,VWS V14.01,2013-03-20 22:55:00,
2013-03-20 17:59:00,68.4,60.5,30.00,East,87,12.2,16.2,76,0.00,,---,0.02,VWS V14.01,2013-03-20 22:59:00,
2013-03-20 18:00:00,68.3,60.8,30.00,East,84,9.2,16.2,77,0.00,,---,0.02,VWS V14.01,2013-03-20 23:00:00,
2013-03-20 18:04:00,68.4,60.9,30.00,ESE,115,9.2,13.2,77,0.00,,---,0.02,VWS V14.01,2013-03-20 23:04:00,
2013-03-20 18:05:00,68.3,60.8,30.00,ENE,76,12.2,15.2,77,0.00,,---,0.02,VWS V14.01,2013-03-20 23:05:00,
2013-03-20 18:09:00,68.1,60.6,30.00,ENE,66,15.2,17.2,77,0.00,,---,0.02,VWS V14.01,2013-03-20 23:09:00,
2013-03-20 18:10:00,67.9,60.8,30.00,East,80,7.2,17.2,78,0.00,,---,0.02,VWS V14.01,2013-03-20 23:10:00,
2013-03-20 18:14:00,67.9,60.8,30.00,ENE,64,11.2,12.2,78,0.00,,---,0.02,VWS V14.01,2013-03-20 23:14:00,
2013-03-20 18:15:00,67.9,60.8,30.00,East,83,11.2,15.2,78,0.00,,---,0.02,VWS V14.01,2013-03-20 23:15:00,
2013-03-20 18:19:00,67.8,61.1,30.00,East,83,10.2,16.2,79,0.00,,---,0.02,VWS V14.01,2013-03-20 23:19:00,
2013-03-20 18:20:00,67.6,60.5,30.00,East,84,11.2,16.2,78,0.00,,---,0.02,VWS V14.01,2013-03-20 23:20:00,
2013-03-20 18:24:00,67.1,59.7,30.00,ENE,76,10.2,16.2,77,0.00,,---,0.02,VWS V14.01,2013-03-20 23:24:00,
2013-03-20 18:25:00,67.1,59.7,30.00,East,94,12.2,16.2,77,0.00,,---,0.02,VWS V14.01,2013-03-20 23:25:00,
2013-03-20 18:29:00,67.1,59.7,30.00,East,88,8.2,14.2,77,0.00,,---,0.02,VWS V14.01,2013-03-20 23:29:00,
2013-03-20 18:30:00,67.3,59.8,30.00,ENE,65,8.2,14.2,77,0.00,,---,0.02,VWS V14.01,2013-03-20 23:30:00,
2013-03-20 18:34:00,67.4,59.6,30.00,East,82,7.2,18.2,76,0.00,,---,0.02,VWS V14.01,2013-03-20 23:34:00,
2013-03-20 18:35:00,67.4,59.2,30.00,ENE,74,9.2,18.2,75,0.00,,---,0.02,VWS V14.01,2013-03-20 23:35:00,
2013-03-20 18:39:00,67.4,59.2,30.00,ENE,69,16.2,17.2,75,0.00,,---,0.02,VWS V14.01,2013-03-20 23:39:00,
2013-03-20 18:40:00,67.4,59.2,30.00,ENE,76,10.2,18.2,75,0.00,,---,0.02,VWS V14.01,2013-03-20 23:40:00,
2013-03-20 18:44:00,67.1,58.9,30.00,NE,54,16.2,17.2,75,0.00,,---,0.02,VWS V14.01,2013-03-20 23:44:00,
2013-03-20 18:45:00,66.8,58.3,30.00,NE,55,13.2,19.2,74,0.00,,---,0.02,VWS V14.01,2013-03-20 23:45:00,
2013-03-20 18:49:00,66.6,56.1,30.00,ENE,63,12.2,20.2,69,0.00,,---,0.02,VWS V14.01,2013-03-20 23:49:00,
2013-03-20 18:50:00,66.6,56.5,30.00,ENE,61,17.2,20.2,70,0.00,,---,0.02,VWS V14.01,2013-03-20 23:50:00,
2013-03-20 18:54:00,66.8,55.9,30.00,East,82,15.2,18.2,68,0.00,,---,0.02,VWS V14.01,2013-03-20 23:54:00,
2013-03-20 18:55:00,66.8,55.9,30.00,East,80,17.2,18.2,68,0.00,,---,0.02,VWS V14.01,2013-03-20 23:55:00,
2013-03-20 18:59:00,66.8,55.5,30.00,NE,54,14.2,19.2,67,0.00,,---,0.02,VWS V14.01,2013-03-20 23:59:00,
2013-03-20 19:00:00,66.6,53.6,30.00,ENE,71,15.2,19.2,63,0.00,,---,0.02,VWS V14.01,2013-03-21 00:00:00,
2013-03-20 19:04:00,66.8,52.9,30.00,East,80,13.2,21.2,61,0.00,,---,0.02,VWS V14.01,2013-03-21 00:04:00,
2013-03-20 19:05:00,66.9,52.1,30.00,East,81,11.2,21.2,59,0.00,,---,0.02,VWS V14.01,2013-03-21 00:05:00,
2013-03-20 19:09:00,66.9,51.2,30.00,ENE,63,8.2,19.2,57,0.00,,---,0.02,VWS V14.01,2013-03-21 00:09:00,
2013-03-20 19:10:00,66.9,52.1,30.00,East,98,13.2,19.2,59,0.00,,---,0.02,VWS V14.01,2013-03-21 00:10:00,
2013-03-20 19:14:00,66.9,51.2,30.00,NE,47,17.2,18.2,57,0.00,,---,0.02,VWS V14.01,2013-03-21 00:14:00,
2013-03-20 19:15:00,66.8,51.1,30.00,ENE,62,18.2,19.2,57,0.00,,---,0.02,VWS V14.01,2013-03-21 00:15:00,
2013-03-20 19:19:00,66.6,50.9,30.00,ENE,67,16.2,21.2,57,0.00,,---,0.02,VWS V14.01,2013-03-21 00:19:00,
2013-03-20 19:20:00,66.6,50.4,30.00,East,87,9.2,21.2,56,0.00,,---,0.02,VWS V14.01,2013-03-21 00:20:00,
2013-03-20 19:24:00,66.6,51.8,30.00,East,84,11.2,17.2,59,0.00,,---,0.02,VWS V14.01,2013-03-21 00:24:00,
2013-03-20 19:25:00,66.4,53.0,30.00,East,88,11.2,17.2,62,0.00,,---,0.02,VWS V14.01,2013-03-21 00:25:00,
2013-03-20 19:29:00,66.3,51.6,30.00,ENE,61,15.2,18.2,59,0.00,,---,0.02,VWS V14.01,2013-03-21 00:29:00,
2013-03-20 19:30:00,66.1,51.8,29.99,ENE,78,16.2,19.2,60,0.00,,---,0.02,VWS V14.01,2013-03-21 00:30:00,
2013-03-20 19:34:00,66.0,51.7,29.99,ENE,74,15.2,19.2,60,0.00,,---,0.02,VWS V14.01,2013-03-21 00:34:00,
2013-03-20 19:35:00,66.0,51.7,29.99,NE,36,18.2,19.2,60,0.00,,---,0.02,VWS V14.01,2013-03-21 00:35:00,
2013-03-20 19:39:00,65.8,52.0,29.99,ENE,57,16.2,20.2,61,0.00,,---,0.02,VWS V14.01,2013-03-21 00:39:00,
2013-03-20 19:40:00,65.8,52.0,29.99,ENE,78,10.2,20.2,61,0.00,,---,0.02,VWS V14.01,2013-03-21 00:40:00,
2013-03-20 19:44:00,65.6,52.7,29.99,East,81,13.2,15.2,63,0.00,,---,0.02,VWS V14.01,2013-03-21 00:44:00,
2013-03-20 19:45:00,65.6,53.1,29.99,NE,46,17.2,17.2,64,0.00,,---,0.02,VWS V14.01,2013-03-21 00:45:00,
2013-03-20 19:49:00,65.5,53.0,29.99,ENE,78,8.2,20.2,64,0.00,,---,0.02,VWS V14.01,2013-03-21 00:49:00,
2013-03-20 19:50:00,65.5,53.0,29.99,ENE,72,15.2,20.2,64,0.00,,---,0.02,VWS V14.01,2013-03-21 00:50:00,
2013-03-20 19:54:00,65.3,52.8,29.99,ENE,67,9.2,17.2,64,0.00,,---,0.02,VWS V14.01,2013-03-21 00:54:00,
2013-03-20 19:55:00,65.3,53.2,29.99,ENE,72,10.2,17.2,65,0.00,,---,0.02,VWS V14.01,2013-03-21 00:55:00,
2013-03-20 19:59:00,65.3,52.4,29.99,NE,55,11.2,17.2,63,0.00,,---,0.02,VWS V14.01,2013-03-21 00:59:00,
2013-03-20 20:00:00,65.3,52.8,29.99,East,80,15.2,17.2,64,0.00,,---,0.02,VWS V14.01,2013-03-21 01:00:00,
2013-03-20 20:04:00,65.3,52.8,29.99,East,96,7.2,16.2,64,0.00,,---,0.02,VWS V14.01,2013-03-21 01:04:00,
2013-03-20 20:05:00,65.3,52.8,29.99,ENE,69,11.2,16.2,64,0.00,,---,0.02,VWS V14.01,2013-03-21 01:05:00,
2013-03-20 20:09:00,65.2,52.7,29.99,ENE,57,12.2,17.2,64,0.00,,---,0.02,VWS V14.01,2013-03-21 01:09:00,
2013-03-20 20:10:00,65.2,52.7,29.99,East,95,12.2,20.2,64,0.00,,---,0.02,VWS V14.01,2013-03-21 01:10:00,
2013-03-20 20:14:00,65.2,54.0,29.99,NNE,32,10.2,16.2,67,0.00,,---,0.02,VWS V14.01,2013-03-21 01:14:00,
2013-03-20 20:15:00,65.2,54.0,30.00,ENE,69,7.2,16.2,67,0.00,,---,0.02,VWS V14.01,2013-03-21 01:15:00,
2013-03-20 20:19:00,65.0,53.8,30.00,East,84,7.2,12.2,67,0.00,,---,0.02,VWS V14.01,2013-03-21 01:19:00,
2013-03-20 20:20:00,65.0,54.2,30.00,ENE,73,6.2,12.2,68,0.00,,---,0.02,VWS V14.01,2013-03-21 01:20:00,
2013-03-20 20:24:00,64.8,54.0,30.00,East,79,11.2,15.2,68,0.00,,---,0.02,VWS V14.01,2013-03-21 01:24:00,
2013-03-20 20:25:00,64.7,54.3,30.00,ENE,57,11.2,15.2,69,0.00,,---,0.02,VWS V14.01,2013-03-21 01:25:00,
2013-03-20 20:29:00,64.7,53.9,30.00,ENE,60,12.2,15.2,68,0.00,,---,0.02,VWS V14.01,2013-03-21 01:29:00,
2013-03-20 20:30:00,64.5,53.7,30.01,ENE,69,10.2,15.2,68,0.00,,---,0.02,VWS V14.01,2013-03-21 01:30:00,
2013-03-20 20:34:00,64.5,53.7,30.01,East,98,8.2,13.2,68,0.00,,---,0.02,VWS V14.01,2013-03-21 01:34:00,
2013-03-20 20:35:00,64.5,54.1,30.01,East,84,9.2,13.2,69,0.00,,---,0.02,VWS V14.01,2013-03-21 01:35:00,
2013-03-20 20:39:00,64.5,54.5,30.01,ENE,78,7.2,15.2,70,0.00,,---,0.02,VWS V14.01,2013-03-21 01:39:00,
2013-03-20 20:40:00,64.3,53.9,30.01,ENE,69,6.2,15.2,69,0.00,,---,0.02,VWS V14.01,2013-03-21 01:40:00,
2013-03-20 20:44:00,64.3,53.9,30.01,ENE,74,10.2,12.2,69,0.00,,---,0.02,VWS V14.01,2013-03-21 01:44:00,
2013-03-20 20:45:00,64.3,53.5,30.01,ENE,57,7.2,13.2,68,0.00,,---,0.02,VWS V14.01,2013-03-21 01:45:00,
2013-03-20 20:49:00,64.3,53.5,30.01,East,82,14.2,14.2,68,0.00,,---,0.02,VWS V14.01,2013-03-21 01:49:00,
2013-03-20 20:50:00,64.3,53.1,30.01,ENE,78,8.2,14.2,67,0.00,,---,0.02,VWS V14.01,2013-03-21 01:50:00,
2013-03-20 20:54:00,64.3,53.5,30.01,East,79,10.2,11.2,68,0.00,,---,0.02,VWS V14.01,2013-03-21 01:54:00,
2013-03-20 20:55:00,64.3,53.9,30.01,ESE,110,11.2,11.2,69,0.00,,---,0.02,VWS V14.01,2013-03-21 01:55:00,
2013-03-20 20:59:00,64.2,53.4,30.01,East,96,5.2,12.2,68,0.00,,---,0.02,VWS V14.01,2013-03-21 01:59:00,
2013-03-20 21:00:00,64.3,53.9,30.01,East,83,4.2,12.2,69,0.00,,---,0.02,VWS V14.01,2013-03-21 02:00:00,
2013-03-20 21:04:00,64.2,54.2,30.01,ENE,78,8.2,15.2,70,0.00,,---,0.02,VWS V14.01,2013-03-21 02:04:00,
2013-03-20 21:05:00,64.2,54.2,30.01,East,79,12.2,15.2,70,0.00,,---,0.02,VWS V14.01,2013-03-21 02:05:00,
2013-03-20 21:09:00,64.2,53.8,30.01,East,81,13.2,13.2,69,0.00,,---,0.02,VWS V14.01,2013-03-21 02:09:00,
2013-03-20 21:10:00,64.2,53.8,30.01,East,81,10.2,13.2,69,0.00,,---,0.02,VWS V14.01,2013-03-21 02:10:00,
2013-03-20 21:14:00,64.2,53.4,30.01,East,82,8.2,14.2,68,0.00,,---,0.02,VWS V14.01,2013-03-21 02:14:00,
2013-03-20 21:15:00,64.2,53.8,30.01,ENE,77,7.2,14.2,69,0.00,,---,0.02,VWS V14.01,2013-03-21 02:15:00,
2013-03-20 21:19:00,64.2,53.8,30.01,ENE,76,7.2,11.2,69,0.00,,---,0.02,VWS V14.01,2013-03-21 02:19:00,
2013-03-20 21:20:00,64.2,53.8,30.01,ENE,76,5.2,11.2,69,0.00,,---,0.02,VWS V14.01,2013-03-21 02:20:00,
2013-03-20 21:24:00,64.2,53.4,30.01,East,82,9.2,13.2,68,0.00,,---,0.02,VWS V14.01,2013-03-21 02:24:00,
2013-03-20 21:25:00,64.2,53.4,30.01,ENE,71,12.2,13.2,68,0.00,,---,0.02,VWS V14.01,2013-03-21 02:25:00,
2013-03-20 21:29:00,64.2,53.8,30.01,ENE,70,7.2,12.2,69,0.00,,---,0.02,VWS V14.01,2013-03-21 02:29:00,
2013-03-20 21:30:00,64.2,53.8,30.01,ENE,57,6.2,12.2,69,0.00,,---,0.02,VWS V14.01,2013-03-21 02:30:00,
2013-03-20 21:34:00,64.2,54.2,30.01,East,80,6.2,11.2,70,0.00,,---,0.02,VWS V14.01,2013-03-21 02:34:00,
2013-03-20 21:35:00,64.2,54.2,30.01,ENE,76,8.2,11.2,70,0.00,,---,0.02,VWS V14.01,2013-03-21 02:35:00,
2013-03-20 21:39:00,64.0,54.4,30.01,ENE,78,5.2,14.2,71,0.00,,---,0.02,VWS V14.01,2013-03-21 02:39:00,
2013-03-20 21:40:00,64.0,54.4,30.01,East,92,6.2,14.2,71,0.00,,---,0.02,VWS V14.01,2013-03-21 02:40:00,
2013-03-20 21:44:00,64.0,54.8,30.01,ENE,69,6.2,13.2,72,0.00,,---,0.02,VWS V14.01,2013-03-21 02:44:00,
2013-03-20 21:45:00,63.9,54.3,30.01,ENE,73,8.2,13.2,71,0.00,,---,0.02,VWS V14.01,2013-03-21 02:45:00,
2013-03-20 21:49:00,64.0,54.8,30.01,North,360,5.2,11.2,72,0.00,,---,0.02,VWS V14.01,2013-03-21 02:49:00,
2013-03-20 21:50:00,63.9,54.7,30.01,ESE,103,7.2,12.2,72,0.00,,---,0.02,VWS V14.01,2013-03-21 02:50:00,
2013-03-20 21:54:00,63.9,54.7,30.01,East,84,7.2,13.2,72,0.00,,---,0.02,VWS V14.01,2013-03-21 02:54:00,
2013-03-20 21:55:00,63.9,55.1,30.01,East,85,5.2,13.2,73,0.00,,---,0.02,VWS V14.01,2013-03-21 02:55:00,
2013-03-20 21:59:00,63.9,55.1,30.01,ENE,77,5.2,8.2,73,0.00,,---,0.02,VWS V14.01,2013-03-21 02:59:00,
2013-03-20 22:00:00,63.9,55.5,30.01,ESE,117,3.2,8.2,74,0.00,,---,0.02,VWS V14.01,2013-03-21 03:00:00,
2013-03-20 22:04:00,63.7,55.3,30.01,East,83,6.2,12.2,74,0.00,,---,0.02,VWS V14.01,2013-03-21 03:04:00,
2013-03-20 22:05:00,63.7,55.3,30.01,East,79,5.2,13.2,74,0.00,,---,0.02,VWS V14.01,2013-03-21 03:05:00,
2013-03-20 22:09:00,63.7,55.3,30.01,ESE,110,6.2,8.2,74,0.00,,---,0.02,VWS V14.01,2013-03-21 03:09:00,
2013-03-20 22:10:00,63.7,55.6,30.01,East,101,8.2,11.2,75,0.00,,---,0.02,VWS V14.01,2013-03-21 03:10:00,
2013-03-20 22:14:00,63.7,55.6,30.01,East,101,7.2,11.2,75,0.00,,---,0.02,VWS V14.01,2013-03-21 03:14:00,
2013-03-20 22:15:00,63.7,55.6,30.01,ESE,119,10.2,13.2,75,0.00,,---,0.02,VWS V14.01,2013-03-21 03:15:00,
2013-03-20 22:19:00,63.7,55.6,30.01,East,98,6.2,13.2,75,0.00,,---,0.02,VWS V14.01,2013-03-21 03:19:00,
2013-03-20 22:20:00,63.7,55.6,30.01,ESE,105,4.2,13.2,75,0.00,,---,0.02,VWS V14.01,2013-03-21 03:20:00,
2013-03-20 22:24:00,63.9,56.2,30.01,ESE,106,6.2,10.2,76,0.00,,---,0.02,VWS V14.01,2013-03-21 03:24:00,
2013-03-20 22:25:00,63.7,56.0,30.01,ESE,105,9.2,13.2,76,0.00,,---,0.02,VWS V14.01,2013-03-21 03:25:00,
2013-03-20 22:29:00,63.7,56.0,30.01,East,96,5.2,11.2,76,0.00,,---,0.02,VWS V14.01,2013-03-21 03:29:00,
2013-03-20 22:30:00,63.7,56.0,30.01,East,91,5.2,11.2,76,0.00,,---,0.02,VWS V14.01,2013-03-21 03:30:00,
2013-03-20 22:34:00,63.9,56.2,30.01,ESE,105,10.2,11.2,76,0.00,,---,0.02,VWS V14.01,2013-03-21 03:34:00,
2013-03-20 22:35:00,63.9,56.2,30.01,East,98,8.2,11.2,76,0.00,,---,0.02,VWS V14.01,2013-03-21 03:35:00,
2013-03-20 22:39:00,63.9,56.6,30.01,East,85,5.2,8.2,77,0.00,,---,0.02,VWS V14.01,2013-03-21 03:39:00,
2013-03-20 22:40:00,63.9,56.6,30.01,East,101,5.2,9.2,77,0.00,,---,0.02,VWS V14.01,2013-03-21 03:40:00,
2013-03-20 22:44:00,63.9,56.6,30.01,ESE,117,4.2,7.2,77,0.00,,---,0.02,VWS V14.01,2013-03-21 03:44:00,
2013-03-20 22:45:00,63.9,56.6,30.01,ENE,74,3.2,7.2,77,0.00,,---,0.02,VWS V14.01,2013-03-21 03:45:00,
2013-03-20 22:49:00,63.7,56.4,30.01,East,82,6.2,9.2,77,0.00,,---,0.02,VWS V14.01,2013-03-21 03:49:00,
2013-03-20 22:50:00,63.7,56.4,30.01,ESE,104,8.2,12.2,77,0.00,,---,0.02,VWS V14.01,2013-03-21 03:50:00,
2013-03-20 22:54:00,63.7,58.1,30.01,East,84,7.2,11.2,82,0.00,,---,0.02,VWS V14.01,2013-03-21 03:54:00,
2013-03-20 22:55:00,63.7,56.4,30.01,East,80,7.2,12.2,77,0.00,,---,0.02,VWS V14.01,2013-03-21 03:55:00,
2013-03-20 22:59:00,63.7,56.4,30.01,ENE,78,4.2,7.2,77,0.00,,---,0.02,VWS V14.01,2013-03-21 03:59:00,
2013-03-20 23:00:00,63.7,56.4,30.01,East,85,5.2,7.2,77,0.00,,---,0.02,VWS V14.01,2013-03-21 04:00:00,
2013-03-20 23:05:00,63.9,56.9,30.00,East,95,6.2,8.2,78,0.00,,---,0.02,VWS V14.01,2013-03-21 04:05:00,
2013-03-20 23:10:00,63.7,56.7,30.00,SE,132,5.2,11.2,78,0.00,,---,0.02,VWS V14.01,2013-03-21 04:10:00,
2013-03-20 23:15:00,63.7,57.1,29.99,East,91,5.2,12.2,79,0.00,,---,0.02,VWS V14.01,2013-03-21 04:15:00,
2013-03-20 23:20:00,63.9,57.3,29.99,ESE,122,5.2,12.2,79,0.00,,---,0.02,VWS V14.01,2013-03-21 04:20:00,
2013-03-20 23:25:00,63.7,57.4,29.99,East,101,7.2,13.2,80,0.00,,---,0.02,VWS V14.01,2013-03-21 04:25:00,
2013-03-20 23:30:00,63.9,57.6,29.99,ESE,106,8.2,13.2,80,0.00,,---,0.02,VWS V14.01,2013-03-21 04:30:00,
2013-03-20 23:35:00,63.9,58.0,29.99,ESE,105,10.2,12.2,81,0.00,,---,0.02,VWS V14.01,2013-03-21 04:35:00,
2013-03-20 23:40:00,63.7,57.8,29.99,East,92,6.2,12.2,81,0.00,,---,0.02,VWS V14.01,2013-03-21 04:40:00,
2013-03-20 23:45:00,63.7,57.8,29.99,ESE,119,11.2,14.2,81,0.00,,---,0.02,VWS V14.01,2013-03-21 04:45:00,
2013-03-20 23:50:00,63.7,58.1,29.99,ESE,110,6.2,14.2,82,0.00,,---,0.02,VWS V14.01,2013-03-21 04:50:00,
2013-03-20 23:55:00,63.7,58.1,29.99,East,98,7.2,11.2,82,0.00,,---,0.02,VWS V14.01,2013-03-21 04:55:00,